sensor_id;sensor_type;location;lat;lon;timestamp;pressure;altitude;pressure_sealevel;temperature;humidity
71915;BME280;60387;49.994;14.660;2023-04-10T00:02:05;98550.69;;;11.47;53.63
71915;BME280;60387;49.994;14.660;2023-04-10T00:04:38;98568.00;;;11.51;53.25
71915;BME280;60387;49.994;14.660;2023-04-10T00:07:12;98571.22;;;11.53;53.26
71915;BME280;60387;49.994;14.660;2023-04-10T00:09:46;98565.28;;;11.51;53.77
71915;BME280;60387;49.994;14.660;2023-04-10T00:12:20;98558.25;;;11.50;53.44
71915;BME280;60387;49.994;14.660;2023-04-10T00:14:53;98560.38;;;11.53;53.53
71915;BME280;60387;49.994;14.660;2023-04-10T00:17:26;98559.06;;;11.50;53.64
71915;BME280;60387;49.994;14.660;2023-04-10T00:20:00;98548.75;;;11.52;53.25
71915;BME280;60387;49.994;14.660;2023-04-10T00:22:33;98549.53;;;11.53;53.26
71915;BME280;60387;49.994;14.660;2023-04-10T00:25:07;98544.66;;;11.55;53.48
71915;BME280;60387;49.994;14.660;2023-04-10T00:27:40;98547.88;;;11.57;53.27
71915;BME280;60387;49.994;14.660;2023-04-10T00:30:14;98549.25;;;11.54;53.72
71915;BME280;60387;49.994;14.660;2023-04-10T00:32:47;98544.66;;;11.55;53.91
71915;BME280;60387;49.994;14.660;2023-04-10T00:35:20;98545.19;;;11.52;54.00
71915;BME280;60387;49.994;14.660;2023-04-10T00:37:54;98537.41;;;11.45;55.07
71915;BME280;60387;49.994;14.660;2023-04-10T00:40:27;98540.13;;;11.45;54.37
71915;BME280;60387;49.994;14.660;2023-04-10T00:43:00;98534.47;;;11.42;53.98
71915;BME280;60387;49.994;14.660;2023-04-10T00:45:34;98539.06;;;11.41;53.84
71915;BME280;60387;49.994;14.660;2023-04-10T00:48:07;98537.69;;;11.44;53.45
71915;BME280;60387;49.994;14.660;2023-04-10T00:50:40;98532.78;;;11.46;53.85
71915;BME280;60387;49.994;14.660;2023-04-10T00:53:15;98534.41;;;11.47;53.88
71915;BME280;60387;49.994;14.660;2023-04-10T00:55:49;98534.94;;;11.49;53.48
71915;BME280;60387;49.994;14.660;2023-04-10T00:58:22;98537.66;;;11.49;53.69
71915;BME280;60387;49.994;14.660;2023-04-10T01:00:55;98534.94;;;11.49;53.81
71915;BME280;60387;49.994;14.660;2023-04-10T01:03:29;98523.03;;;11.45;54.00
71915;BME280;60387;49.994;14.660;2023-04-10T01:06:11;98531.41;;;11.48;54.07
71915;BME280;60387;49.994;14.660;2023-04-10T01:08:59;98530.59;;;11.48;54.10
71915;BME280;60387;49.994;14.660;2023-04-10T01:11:47;98524.63;;;11.46;53.99
71915;BME280;60387;49.994;14.660;2023-04-10T01:17:28;98521.16;;;11.40;54.13
71915;BME280;60387;49.994;14.660;2023-04-10T01:20:11;98512.28;;;11.35;54.70
71915;BME280;60387;49.994;14.660;2023-04-10T01:25:45;98517.19;;;11.33;54.00
71915;BME280;60387;49.994;14.660;2023-04-10T01:28:23;98515.06;;;11.30;54.36
71915;BME280;60387;49.994;14.660;2023-04-10T01:31:01;98514.81;;;11.26;54.25
71915;BME280;60387;49.994;14.660;2023-04-10T01:33:42;98514.81;;;11.26;53.93
71915;BME280;60387;49.994;14.660;2023-04-10T01:36:22;98508.56;;;11.26;54.18
71915;BME280;60387;49.994;14.660;2023-04-10T01:38:57;98508.06;;;11.24;54.40
71915;BME280;60387;49.994;14.660;2023-04-10T01:41:32;98506.72;;;11.21;54.43
71915;BME280;60387;49.994;14.660;2023-04-10T01:44:06;98514.34;;;11.19;54.24
71915;BME280;60387;49.994;14.660;2023-04-10T01:46:42;98514.63;;;11.18;54.05
71915;BME280;60387;49.994;14.660;2023-04-10T01:49:17;98505.97;;;11.16;54.32
71915;BME280;60387;49.994;14.660;2023-04-10T01:51:50;98499.19;;;11.13;54.43
71915;BME280;60387;49.994;14.660;2023-04-10T01:54:28;98502.44;;;11.15;54.25
71915;BME280;60387;49.994;14.660;2023-04-10T01:57:03;98505.72;;;11.12;54.44
71915;BME280;60387;49.994;14.660;2023-04-10T01:59:37;98508.19;;;11.09;54.59
71915;BME280;60387;49.994;14.660;2023-04-10T02:02:11;98508.78;;;11.06;54.39
71915;BME280;60387;49.994;14.660;2023-04-10T02:04:44;98515.84;;;11.02;54.24
71915;BME280;60387;49.994;14.660;2023-04-10T02:07:30;98516.16;;;11.00;55.00
71915;BME280;60387;49.994;14.660;2023-04-10T02:12:45;98517.03;;;10.91;54.37
71915;BME280;60387;49.994;14.660;2023-04-10T02:15:23;98511.38;;;10.87;54.40
71915;BME280;60387;49.994;14.660;2023-04-10T02:17:59;98515.44;;;10.85;54.72
71915;BME280;60387;49.994;14.660;2023-04-10T02:20:34;98505.19;;;10.82;54.55
71915;BME280;60387;49.994;14.660;2023-04-10T02:23:08;98519.31;;;10.79;54.86
71915;BME280;60387;49.994;14.660;2023-04-10T02:25:41;98506.59;;;10.74;54.83
71915;BME280;60387;49.994;14.660;2023-04-10T02:28:15;98509.59;;;10.73;54.22
71915;BME280;60387;49.994;14.660;2023-04-10T02:30:48;98499.31;;;10.70;55.03
71915;BME280;60387;49.994;14.660;2023-04-10T02:33:21;98508.53;;;10.69;54.66
71915;BME280;60387;49.994;14.660;2023-04-10T02:35:55;98508.53;;;10.69;55.50
71915;BME280;60387;49.994;14.660;2023-04-10T02:38:28;98507.47;;;10.65;56.58
71915;BME280;60387;49.994;14.660;2023-04-10T02:41:01;98508.59;;;10.59;55.90
71915;BME280;60387;49.994;14.660;2023-04-10T02:43:34;98501.91;;;10.51;55.69
71915;BME280;60387;49.994;14.660;2023-04-10T02:46:08;98511.63;;;10.52;55.50
71915;BME280;60387;49.994;14.660;2023-04-10T02:48:41;98513.53;;;10.52;55.13
71915;BME280;60387;49.994;14.660;2023-04-10T02:51:14;98516.78;;;10.54;55.24
71915;BME280;60387;49.994;14.660;2023-04-10T02:53:48;98523.81;;;10.55;55.01
71915;BME280;60387;49.994;14.660;2023-04-10T02:56:21;98509.44;;;10.54;55.81
71915;BME280;60387;49.994;14.660;2023-04-10T02:58:54;98514.06;;;10.54;55.64
71915;BME280;60387;49.994;14.660;2023-04-10T03:01:28;98508.66;;;10.54;55.39
71915;BME280;60387;49.994;14.660;2023-04-10T03:04:01;98518.91;;;10.57;54.97
71915;BME280;60387;49.994;14.660;2023-04-10T03:06:34;98517.03;;;10.57;55.75
71915;BME280;60387;49.994;14.660;2023-04-10T03:09:07;98520.28;;;10.54;56.19
71915;BME280;60387;49.994;14.660;2023-04-10T03:11:41;98518.66;;;10.53;55.96
71915;BME280;60387;49.994;14.660;2023-04-10T03:14:14;98515.16;;;10.53;55.72
71915;BME280;60387;49.994;14.660;2023-04-10T03:16:47;98520.00;;;10.56;55.26
71915;BME280;60387;49.994;14.660;2023-04-10T03:19:21;98507.56;;;10.55;55.44
71915;BME280;60387;49.994;14.660;2023-04-10T03:21:54;98507.84;;;10.53;55.53
71915;BME280;60387;49.994;14.660;2023-04-10T03:24:27;98522.16;;;10.59;55.29
71915;BME280;60387;49.994;14.660;2023-04-10T03:27:00;98517.81;;;10.58;54.93
71915;BME280;60387;49.994;14.660;2023-04-10T03:29:34;98520.00;;;10.61;55.62
71915;BME280;60387;49.994;14.660;2023-04-10T03:32:07;98522.97;;;10.59;55.07
71915;BME280;60387;49.994;14.660;2023-04-10T03:34:40;98525.69;;;10.59;55.38
71915;BME280;60387;49.994;14.660;2023-04-10T03:37:14;98525.09;;;10.62;55.26
71915;BME280;60387;49.994;14.660;2023-04-10T03:39:47;98531.34;;;10.63;55.58
71915;BME280;60387;49.994;14.660;2023-04-10T03:42:20;98536.19;;;10.66;54.69
71915;BME280;60387;49.994;14.660;2023-04-10T03:44:53;98525.34;;;10.66;54.98
71915;BME280;60387;49.994;14.660;2023-04-10T03:47:27;98525.88;;;10.68;55.38
71915;BME280;60387;49.994;14.660;2023-04-10T03:50:00;98532.38;;;10.67;55.22
71915;BME280;60387;49.994;14.660;2023-04-10T03:52:34;98532.69;;;10.65;55.06
71915;BME280;60387;49.994;14.660;2023-04-10T03:55:07;98528.59;;;10.68;55.02
71915;BME280;60387;49.994;14.660;2023-04-10T03:57:40;98526.69;;;10.68;54.82
71915;BME280;60387;49.994;14.660;2023-04-10T04:00:14;98527.78;;;10.67;55.31
71915;BME280;60387;49.994;14.660;2023-04-10T04:02:48;98523.16;;;10.68;54.84
71915;BME280;60387;49.994;14.660;2023-04-10T04:05:21;98526.44;;;10.65;54.88
71915;BME280;60387;49.994;14.660;2023-04-10T04:07:55;98520.78;;;10.61;54.96
71915;BME280;60387;49.994;14.660;2023-04-10T04:10:28;98531.88;;;10.65;54.93
71915;BME280;60387;49.994;14.660;2023-04-10T04:13:01;98530.28;;;10.59;55.74
71915;BME280;60387;49.994;14.660;2023-04-10T04:15:35;98535.69;;;10.59;55.37
71915;BME280;60387;49.994;14.660;2023-04-10T04:18:08;98532.22;;;10.53;55.22
71915;BME280;60387;49.994;14.660;2023-04-10T04:20:41;98541.16;;;10.54;55.37
71915;BME280;60387;49.994;14.660;2023-04-10T04:23:15;98543.56;;;10.55;55.46
71915;BME280;60387;49.994;14.660;2023-04-10T04:25:48;98539.25;;;10.54;55.39
71915;BME280;60387;49.994;14.660;2023-04-10T04:28:21;98539.25;;;10.54;55.57
71915;BME280;60387;49.994;14.660;2023-04-10T04:30:55;98544.41;;;10.51;56.10
71915;BME280;60387;49.994;14.660;2023-04-10T04:33:28;98548.22;;;10.50;56.06
71915;BME280;60387;49.994;14.660;2023-04-10T04:36:01;98544.97;;;10.48;55.32
71915;BME280;60387;49.994;14.660;2023-04-10T04:38:35;98550.13;;;10.49;55.81
71915;BME280;60387;49.994;14.660;2023-04-10T04:41:08;98552.28;;;10.47;55.32
71915;BME280;60387;49.994;14.660;2023-04-10T04:43:41;98557.69;;;10.52;55.30
71915;BME280;60387;49.994;14.660;2023-04-10T04:46:15;98554.44;;;10.50;55.14
71915;BME280;60387;49.994;14.660;2023-04-10T04:48:48;98544.41;;;10.51;55.48
71915;BME280;60387;49.994;14.660;2023-04-10T04:51:21;98553.09;;;10.53;55.32
71915;BME280;60387;49.994;14.660;2023-04-10T04:53:55;98558.50;;;10.53;55.38
71915;BME280;60387;49.994;14.660;2023-04-10T04:56:28;98546.84;;;10.52;55.46
71915;BME280;60387;49.994;14.660;2023-04-10T04:59:01;98552.78;;;10.59;55.46
71915;BME280;60387;49.994;14.660;2023-04-10T05:01:34;98553.81;;;10.63;55.29
71915;BME280;60387;49.994;14.660;2023-04-10T05:04:08;98554.56;;;10.74;55.40
71915;BME280;60387;49.994;14.660;2023-04-10T05:06:41;98559.31;;;10.92;55.12
71915;BME280;60387;49.994;14.660;2023-04-10T05:09:14;98551.81;;;11.12;55.00
71915;BME280;60387;49.994;14.660;2023-04-10T05:11:48;98558.59;;;11.43;55.41
71915;BME280;60387;49.994;14.660;2023-04-10T05:14:21;98565.03;;;11.81;54.76
71915;BME280;60387;49.994;14.660;2023-04-10T05:16:54;98572.22;;;12.14;54.28
71915;BME280;60387;49.994;14.660;2023-04-10T05:19:27;98572.13;;;12.42;54.25
71915;BME280;60387;49.994;14.660;2023-04-10T05:22:01;98569.88;;;12.68;53.87
71915;BME280;60387;49.994;14.660;2023-04-10T05:24:34;98563.78;;;12.94;53.61
71915;BME280;60387;49.994;14.660;2023-04-10T05:27:07;98562.66;;;13.13;53.54
71915;BME280;60387;49.994;14.660;2023-04-10T05:29:41;98571.00;;;13.35;53.53
71915;BME280;60387;49.994;14.660;2023-04-10T05:32:14;98575.06;;;13.51;53.47
71915;BME280;60387;49.994;14.660;2023-04-10T05:34:47;98572.66;;;13.63;53.48
71915;BME280;60387;49.994;14.660;2023-04-10T05:37:20;98577.94;;;13.73;53.06
71915;BME280;60387;49.994;14.660;2023-04-10T05:39:54;98574.09;;;13.74;52.95
71915;BME280;60387;49.994;14.660;2023-04-10T05:42:27;98578.94;;;13.77;53.18
71915;BME280;60387;49.994;14.660;2023-04-10T05:45:00;98587.50;;;13.84;53.17
71915;BME280;60387;49.994;14.660;2023-04-10T05:47:33;98577.56;;;13.93;52.89
71915;BME280;60387;49.994;14.660;2023-04-10T05:50:07;98586.66;;;14.02;53.02
71915;BME280;60387;49.994;14.660;2023-04-10T05:52:40;98589.66;;;14.14;52.83
71915;BME280;60387;49.994;14.660;2023-04-10T05:55:14;98589.78;;;14.23;52.77
71915;BME280;60387;49.994;14.660;2023-04-10T05:57:47;98587.88;;;14.23;52.40
71915;BME280;60387;49.994;14.660;2023-04-10T06:00:20;98593.31;;;14.23;52.50
71915;BME280;60387;49.994;14.660;2023-04-10T06:02:54;98601.50;;;14.23;52.37
71915;BME280;60387;49.994;14.660;2023-04-10T06:05:27;98593.13;;;14.20;52.59
71915;BME280;60387;49.994;14.660;2023-04-10T06:08:00;98593.31;;;14.23;52.63
71915;BME280;60387;49.994;14.660;2023-04-10T06:10:34;98604.44;;;14.27;52.40
71915;BME280;60387;49.994;14.660;2023-04-10T06:13:07;98599.97;;;14.31;52.45
71915;BME280;60387;49.994;14.660;2023-04-10T06:15:40;98598.56;;;14.33;52.38
71915;BME280;60387;49.994;14.660;2023-04-10T06:18:13;98594.72;;;14.34;51.84
71915;BME280;60387;49.994;14.660;2023-04-10T06:20:47;98596.53;;;14.39;52.10
71915;BME280;60387;49.994;14.660;2023-04-10T06:23:20;98595.63;;;14.43;51.95
71915;BME280;60387;49.994;14.660;2023-04-10T06:25:54;98600.78;;;14.45;51.70
71915;BME280;60387;49.994;14.660;2023-04-10T06:28:28;98596.22;;;14.54;52.00
71915;BME280;60387;49.994;14.660;2023-04-10T06:31:01;98595.72;;;14.65;51.90
71915;BME280;60387;49.994;14.660;2023-04-10T06:33:34;98612.88;;;14.79;52.20
71915;BME280;60387;49.994;14.660;2023-04-10T06:36:08;98607.75;;;15.00;52.08
71915;BME280;60387;49.994;14.660;2023-04-10T06:38:41;98613.03;;;15.18;51.81
71915;BME280;60387;49.994;14.660;2023-04-10T06:41:14;98611.28;;;15.36;51.70
71915;BME280;60387;49.994;14.660;2023-04-10T06:43:48;98605.13;;;15.52;51.33
71915;BME280;60387;49.994;14.660;2023-04-10T06:46:21;98612.94;;;15.67;51.19
71915;BME280;60387;49.994;14.660;2023-04-10T06:48:54;98612.03;;;15.80;50.94
71915;BME280;60387;49.994;14.660;2023-04-10T06:51:27;98610.19;;;15.89;50.92
71915;BME280;60387;49.994;14.660;2023-04-10T06:54:01;98617.00;;;16.00;50.91
71915;BME280;60387;49.994;14.660;2023-04-10T06:56:34;98607.38;;;16.11;50.67
71915;BME280;60387;49.994;14.660;2023-04-10T06:59:07;98614.06;;;16.35;50.33
71915;BME280;60387;49.994;14.660;2023-04-10T07:01:41;98610.13;;;16.50;50.21
71915;BME280;60387;49.994;14.660;2023-04-10T07:04:14;98608.72;;;16.69;49.75
71915;BME280;60387;49.994;14.660;2023-04-10T07:06:47;98605.06;;;16.82;49.24
71915;BME280;60387;49.994;14.660;2023-04-10T07:09:20;98612.00;;;17.05;49.68
71915;BME280;60387;49.994;14.660;2023-04-10T07:11:54;98607.66;;;17.30;48.41
71915;BME280;60387;49.994;14.660;2023-04-10T07:14:27;98601.38;;;17.46;48.31
71915;BME280;60387;49.994;14.660;2023-04-10T07:17:01;98601.53;;;17.50;48.26
71915;BME280;60387;49.994;14.660;2023-04-10T07:19:34;98603.31;;;17.46;47.72
71915;BME280;60387;49.994;14.660;2023-04-10T07:22:07;98611.22;;;17.39;47.78
71915;BME280;60387;49.994;14.660;2023-04-10T07:24:41;98594.44;;;17.32;47.39
71915;BME280;60387;49.994;14.660;2023-04-10T07:27:14;98602.34;;;17.16;46.32
71915;BME280;60387;49.994;14.660;2023-04-10T07:29:47;98609.25;;;16.97;46.74
71915;BME280;60387;49.994;14.660;2023-04-10T07:32:21;98591.84;;;16.76;47.07
71915;BME280;60387;49.994;14.660;2023-04-10T07:34:54;98598.59;;;16.78;46.13
71915;BME280;60387;49.994;14.660;2023-04-10T07:37:28;98595.25;;;16.98;47.05
71915;BME280;60387;49.994;14.660;2023-04-10T07:40:01;98595.56;;;17.14;46.05
71915;BME280;60387;49.994;14.660;2023-04-10T07:42:35;98599.28;;;17.18;44.73
71915;BME280;60387;49.994;14.660;2023-04-10T07:45:08;98588.00;;;17.11;43.19
71915;BME280;60387;49.994;14.660;2023-04-10T07:47:42;98582.69;;;17.06;45.53
71915;BME280;60387;49.994;14.660;2023-04-10T07:50:15;98602.66;;;17.06;45.88
71915;BME280;60387;49.994;14.660;2023-04-10T07:52:48;98587.69;;;17.04;46.43
71915;BME280;60387;49.994;14.660;2023-04-10T07:55:21;98602.84;;;17.10;46.43
71915;BME280;60387;49.994;14.660;2023-04-10T07:57:55;98594.44;;;17.15;46.27
71915;BME280;60387;49.994;14.660;2023-04-10T08:00:28;98591.38;;;17.25;46.72
71915;BME280;60387;49.994;14.660;2023-04-10T08:03:03;98596.88;;;17.33;45.66
71915;BME280;60387;49.994;14.660;2023-04-10T08:05:36;98583.84;;;17.39;46.22
71915;BME280;60387;49.994;14.660;2023-04-10T08:08:10;98580.28;;;17.47;45.25
71915;BME280;60387;49.994;14.660;2023-04-10T08:10:43;98585.75;;;17.47;45.66
71915;BME280;60387;49.994;14.660;2023-04-10T08:13:16;98574.97;;;17.50;45.59
71915;BME280;60387;49.994;14.660;2023-04-10T08:15:50;98576.72;;;17.55;45.34
71915;BME280;60387;49.994;14.660;2023-04-10T08:18:23;98571.41;;;17.58;46.01
71915;BME280;60387;49.994;14.660;2023-04-10T08:20:56;98575.44;;;17.61;46.08
71915;BME280;60387;49.994;14.660;2023-04-10T08:23:30;98569.75;;;17.66;45.21
71915;BME280;60387;49.994;14.660;2023-04-10T08:26:03;98572.28;;;17.88;45.69
71915;BME280;60387;49.994;14.660;2023-04-10T08:28:36;98564.44;;;18.15;45.86
71915;BME280;60387;49.994;14.660;2023-04-10T08:31:09;98580.84;;;18.61;45.50
71915;BME280;60387;49.994;14.660;2023-04-10T08:33:43;98584.63;;;19.18;45.92
71915;BME280;60387;49.994;14.660;2023-04-10T08:36:16;98577.63;;;19.62;43.29
71915;BME280;60387;49.994;14.660;2023-04-10T08:38:49;98582.88;;;19.87;39.36
71915;BME280;60387;49.994;14.660;2023-04-10T08:41:23;98581.84;;;19.91;41.11
71915;BME280;60387;49.994;14.660;2023-04-10T08:43:56;98581.34;;;19.89;40.87
71915;BME280;60387;49.994;14.660;2023-04-10T08:46:30;98578.03;;;19.84;40.13
71915;BME280;60387;49.994;14.660;2023-04-10T08:49:09;98586.06;;;19.89;38.62
71915;BME280;60387;49.994;14.660;2023-04-10T08:51:55;98579.75;;;19.88;40.25
71915;BME280;60387;49.994;14.660;2023-04-10T08:54:33;98573.47;;;20.00;40.56
71915;BME280;60387;49.994;14.660;2023-04-10T08:57:11;98575.69;;;20.06;41.19
71915;BME280;60387;49.994;14.660;2023-04-10T08:59:47;98574.50;;;19.95;39.54
71915;BME280;60387;49.994;14.660;2023-04-10T09:02:21;98572.63;;;19.76;40.13
71915;BME280;60387;49.994;14.660;2023-04-10T09:04:54;98573.31;;;19.73;39.95
71915;BME280;60387;49.994;14.660;2023-04-10T09:07:30;98570.34;;;19.77;39.77
71915;BME280;60387;49.994;14.660;2023-04-10T09:10:05;98565.66;;;19.78;38.76
71915;BME280;60387;49.994;14.660;2023-04-10T09:12:46;98567.59;;;19.77;39.55
71915;BME280;60387;49.994;14.660;2023-04-10T09:15:19;98559.47;;;19.93;40.47
71915;BME280;60387;49.994;14.660;2023-04-10T09:17:55;98557.03;;;20.36;40.62
71915;BME280;60387;49.994;14.660;2023-04-10T09:20:30;98560.69;;;20.76;39.57
71915;BME280;60387;49.994;14.660;2023-04-10T09:23:21;98569.25;;;20.98;38.89
71915;BME280;60387;49.994;14.660;2023-04-10T09:25:55;98563.84;;;21.14;39.36
71915;BME280;60387;49.994;14.660;2023-04-10T09:28:28;98560.19;;;21.37;39.67
71915;BME280;60387;49.994;14.660;2023-04-10T09:31:29;98550.38;;;21.79;39.36
71915;BME280;60387;49.994;14.660;2023-04-10T09:36:58;98546.03;;;22.25;36.32
71915;BME280;60387;49.994;14.660;2023-04-10T09:39:38;98545.75;;;22.14;36.96
71915;BME280;60387;49.994;14.660;2023-04-10T09:42:11;98548.59;;;22.02;37.61
71915;BME280;60387;49.994;14.660;2023-04-10T09:44:45;98534.00;;;22.17;38.90
71915;BME280;60387;49.994;14.660;2023-04-10T09:47:22;98538.34;;;22.65;37.96
71915;BME280;60387;49.994;14.660;2023-04-10T09:49:57;98534.38;;;23.16;37.82
71915;BME280;60387;49.994;14.660;2023-04-10T09:52:32;98525.31;;;23.56;34.56
71915;BME280;60387;49.994;14.660;2023-04-10T09:55:06;98523.25;;;23.72;33.28
71915;BME280;60387;49.994;14.660;2023-04-10T09:57:40;98525.19;;;23.49;32.38
71915;BME280;60387;49.994;14.660;2023-04-10T10:00:14;98515.50;;;23.02;33.21
71915;BME280;60387;49.994;14.660;2023-04-10T10:02:48;98521.28;;;22.44;31.61
71915;BME280;60387;49.994;14.660;2023-04-10T10:05:22;98513.00;;;21.97;32.84
71915;BME280;60387;49.994;14.660;2023-04-10T10:07:56;98505.63;;;21.58;34.32
71915;BME280;60387;49.994;14.660;2023-04-10T10:10:30;98506.97;;;21.49;33.86
71915;BME280;60387;49.994;14.660;2023-04-10T10:13:03;98508.59;;;21.38;33.92
71915;BME280;60387;49.994;14.660;2023-04-10T10:15:43;98508.16;;;21.36;35.09
71915;BME280;60387;49.994;14.660;2023-04-10T10:18:24;98500.59;;;21.60;33.96
71915;BME280;60387;49.994;14.660;2023-04-10T10:20:59;98486.13;;;21.94;34.56
71915;BME280;60387;49.994;14.660;2023-04-10T10:23:33;98491.34;;;22.46;33.25
71915;BME280;60387;49.994;14.660;2023-04-10T10:26:08;98488.16;;;22.97;30.58
71915;BME280;60387;49.994;14.660;2023-04-10T10:28:43;98486.56;;;23.34;31.86
71915;BME280;60387;49.994;14.660;2023-04-10T10:31:20;98478.78;;;23.62;31.31
71915;BME280;60387;49.994;14.660;2023-04-10T10:33:54;98491.94;;;23.87;30.56
71915;BME280;60387;49.994;14.660;2023-04-10T10:36:27;98487.56;;;24.09;30.30
71915;BME280;60387;49.994;14.660;2023-04-10T10:45:17;98477.06;;;24.70;29.39
71915;BME280;60387;49.994;14.660;2023-04-10T10:47:53;98474.75;;;24.75;27.75
71915;BME280;60387;49.994;14.660;2023-04-10T10:50:55;98473.56;;;24.76;28.74
71915;BME280;60387;49.994;14.660;2023-04-10T10:53:39;98469.47;;;24.63;28.49
71915;BME280;60387;49.994;14.660;2023-04-10T10:58:53;98468.16;;;24.31;28.11
71915;BME280;60387;49.994;14.660;2023-04-10T11:01:27;98469.75;;;24.32;27.92
71915;BME280;60387;49.994;14.660;2023-04-10T11:05:03;98465.97;;;24.44;26.80
71915;BME280;60387;49.994;14.660;2023-04-10T11:07:17;98459.66;;;24.73;29.14
71915;BME280;60387;49.994;14.660;2023-04-10T11:09:52;98451.72;;;25.01;27.87
71915;BME280;60387;49.994;14.660;2023-04-10T11:12:26;98453.84;;;25.11;27.29
71915;BME280;60387;49.994;14.660;2023-04-10T11:15:01;98442.81;;;25.18;26.80
71915;BME280;60387;49.994;14.660;2023-04-10T11:17:55;98443.06;;;25.06;28.40
71915;BME280;60387;49.994;14.660;2023-04-10T11:20:28;98431.09;;;24.98;27.52
71915;BME280;60387;49.994;14.660;2023-04-10T11:23:09;98427.56;;;25.01;29.34
71915;BME280;60387;49.994;14.660;2023-04-10T11:34:02;98403.63;;;25.99;26.41
71915;BME280;60387;49.994;14.660;2023-04-10T11:36:40;98406.53;;;26.17;26.17
71915;BME280;60387;49.994;14.660;2023-04-10T11:39:16;98408.56;;;26.27;24.03
71915;BME280;60387;49.994;14.660;2023-04-10T11:41:53;98406.41;;;26.03;24.24
71915;BME280;60387;49.994;14.660;2023-04-10T11:44:31;98401.50;;;25.86;23.88
71915;BME280;60387;49.994;14.660;2023-04-10T11:47:04;98400.72;;;25.85;24.85
71915;BME280;60387;49.994;14.660;2023-04-10T11:49:38;98396.41;;;25.88;27.12
71915;BME280;60387;49.994;14.660;2023-04-10T11:52:11;98400.44;;;25.97;26.25
71915;BME280;60387;49.994;14.660;2023-04-10T11:54:47;98379.75;;;25.88;26.33
71915;BME280;60387;49.994;14.660;2023-04-10T11:57:21;98393.94;;;25.83;23.43
71915;BME280;60387;49.994;14.660;2023-04-10T11:59:55;98379.59;;;25.74;23.87
71915;BME280;60387;49.994;14.660;2023-04-10T12:02:28;98387.91;;;25.74;26.42
71915;BME280;60387;49.994;14.660;2023-04-10T12:05:01;98382.16;;;25.93;25.31
71915;BME280;60387;49.994;14.660;2023-04-10T12:07:34;98387.44;;;26.08;24.27
71915;BME280;60387;49.994;14.660;2023-04-10T12:10:08;98380.72;;;26.13;24.54
71915;BME280;60387;49.994;14.660;2023-04-10T12:12:41;98372.41;;;26.20;22.21
71915;BME280;60387;49.994;14.660;2023-04-10T12:15:27;98368.03;;;26.12;23.82
71915;BME280;60387;49.994;14.660;2023-04-10T12:18:01;98363.13;;;25.98;25.38
71915;BME280;60387;49.994;14.660;2023-04-10T12:20:35;98361.63;;;26.08;21.59
71915;BME280;60387;49.994;14.660;2023-04-10T12:23:09;98365.25;;;26.12;23.60
71915;BME280;60387;49.994;14.660;2023-04-10T12:25:43;98363.59;;;26.07;23.65
71915;BME280;60387;49.994;14.660;2023-04-10T12:28:18;98347.09;;;25.74;22.22
71915;BME280;60387;49.994;14.660;2023-04-10T12:30:51;98344.03;;;25.43;22.32
71915;BME280;60387;49.994;14.660;2023-04-10T12:33:25;98346.25;;;25.23;23.97
71915;BME280;60387;49.994;14.660;2023-04-10T12:35:59;98346.28;;;25.27;23.99
71915;BME280;60387;49.994;14.660;2023-04-10T12:38:39;98342.66;;;25.23;23.58
71915;BME280;60387;49.994;14.660;2023-04-10T12:41:12;98329.78;;;25.08;23.05
71915;BME280;60387;49.994;14.660;2023-04-10T12:43:46;98329.44;;;25.09;23.86
71915;BME280;60387;49.994;14.660;2023-04-10T12:46:24;98334.59;;;25.11;24.99
71915;BME280;60387;49.994;14.660;2023-04-10T12:49:16;98325.84;;;25.09;24.40
71915;BME280;60387;49.994;14.660;2023-04-10T12:51:51;98324.69;;;25.10;22.81
71915;BME280;60387;49.994;14.660;2023-04-10T12:54:32;98317.13;;;25.07;22.39
71915;BME280;60387;49.994;14.660;2023-04-10T12:57:05;98324.69;;;25.10;22.43
71915;BME280;60387;49.994;14.660;2023-04-10T12:59:41;98315.34;;;24.88;22.83
71915;BME280;60387;49.994;14.660;2023-04-10T13:02:14;98311.25;;;24.75;22.97
71915;BME280;60387;49.994;14.660;2023-04-10T13:04:47;98296.09;;;24.66;23.85
71915;BME280;60387;49.994;14.660;2023-04-10T13:07:21;98288.63;;;24.70;24.28
71915;BME280;60387;49.994;14.660;2023-04-10T13:09:54;98298.47;;;24.67;22.64
71915;BME280;60387;49.994;14.660;2023-04-10T13:12:27;98290.31;;;24.48;22.83
71915;BME280;60387;49.994;14.660;2023-04-10T13:15:01;98296.25;;;24.17;23.12
71915;BME280;60387;49.994;14.660;2023-04-10T13:17:34;98275.38;;;23.94;24.68
71915;BME280;60387;49.994;14.660;2023-04-10T13:20:10;98277.72;;;23.92;24.81
71915;BME280;60387;49.994;14.660;2023-04-10T13:22:44;98269.66;;;23.83;23.87
71915;BME280;60387;49.994;14.660;2023-04-10T13:25:17;98274.19;;;23.69;24.37
71915;BME280;60387;49.994;14.660;2023-04-10T13:27:50;98284.31;;;23.58;24.28
71915;BME280;60387;49.994;14.660;2023-04-10T13:30:24;98271.78;;;23.42;23.08
71915;BME280;60387;49.994;14.660;2023-04-10T13:32:57;98263.28;;;23.28;23.92
71915;BME280;60387;49.994;14.660;2023-04-10T13:35:30;98253.88;;;23.32;25.19
71915;BME280;60387;49.994;14.660;2023-04-10T13:38:04;98254.94;;;23.50;24.67
71915;BME280;60387;49.994;14.660;2023-04-10T13:40:37;98259.72;;;23.53;24.88
71915;BME280;60387;49.994;14.660;2023-04-10T13:43:10;98248.13;;;23.44;25.43
71915;BME280;60387;49.994;14.660;2023-04-10T13:45:44;98235.16;;;23.48;24.10
71915;BME280;60387;49.994;14.660;2023-04-10T13:48:17;98233.28;;;23.55;24.66
71915;BME280;60387;49.994;14.660;2023-04-10T13:50:50;98228.22;;;23.61;25.05
71915;BME280;60387;49.994;14.660;2023-04-10T13:53:24;98230.75;;;23.73;24.52
71915;BME280;60387;49.994;14.660;2023-04-10T13:55:57;98228.28;;;23.64;23.97
71915;BME280;60387;49.994;14.660;2023-04-10T13:58:30;98230.53;;;23.55;22.50